Time;durP1;ratioP1;P1;durP2;ratioP2;P2;SDS_P1;SDS_P2;PMS_P1;PMS_P2;Temp;Humidity;BMP_temperature;BMP_pressure;BME280_temperature;BME280_humidity;BME280_pressure;Samples;Min_cycle;Max_cycle;Signal;HPM_P1;HPM_P2
2022/03/16 00:01:21;;;;;;;13.20;9.98;;;;;;;29.84;61.74;100720.31;5044172;28;66444;-42
2022/03/16 00:03:52;;;;;;;17.35;10.73;;;;;;;29.81;63.51;100715.34;5048871;28;69360;-41
2022/03/16 00:06:27;;;;;;;20.50;13.23;;;;;;;29.79;63.55;100722.03;5047052;28;65093;-41
2022/03/16 00:09:01;;;;;;;19.88;11.88;;;;;;;29.73;64.36;100721.00;5059438;28;70120;-41
2022/03/16 00:11:32;;;;;;;24.73;12.10;;;;;;;29.72;64.46;100721.22;5073195;28;65968;-41
2022/03/16 00:14:03;;;;;;;32.30;12.48;;;;;;;29.70;64.51;100732.25;5048298;28;70688;-38
2022/03/16 00:16:35;;;;;;;17.27;12.50;;;;;;;29.70;64.20;100731.41;5065277;28;66193;-40
2022/03/16 00:19:06;;;;;;;21.52;13.25;;;;;;;29.41;63.15;100690.34;5063383;28;69943;-41
2022/03/16 00:21:38;;;;;;;24.00;14.02;;;;;;;29.70;63.87;100734.97;5058999;28;66432;-42
2022/03/16 00:24:09;;;;;;;25.50;13.52;;;;;;;29.69;63.50;100738.69;5068401;28;70537;-43
2022/03/16 00:26:40;;;;;;;22.43;13.67;;;;;;;29.71;64.10;100736.63;5079991;28;65919;-42
2022/03/16 00:29:11;;;;;;;21.05;13.30;;;;;;;29.82;64.17;100735.94;5076430;28;71089;-40
2022/03/16 00:31:42;;;;;;;20.13;13.50;;;;;;;29.91;63.34;100741.09;5077761;28;65741;-41
2022/03/16 00:34:13;;;;;;;15.40;10.77;;;;;;;30.06;60.18;100741.59;5076656;28;69813;-42
2022/03/16 00:36:44;;;;;;;12.77;11.38;;;;;;;30.19;59.36;100737.97;5058964;28;65614;-41
2022/03/16 00:39:15;;;;;;;13.57;10.95;;;;;;;30.26;59.62;100736.94;5081238;27;69703;-41
2022/03/16 00:41:46;;;;;;;16.25;10.88;;;;;;;30.34;59.41;100737.69;5073727;28;66297;-40
2022/03/16 00:44:17;;;;;;;12.27;10.05;;;;;;;30.43;59.01;100744.50;5072662;28;70248;-40
2022/03/16 00:46:48;;;;;;;12.43;11.05;;;;;;;30.49;58.58;100749.03;5066670;27;66087;-41
2022/03/16 00:49:19;;;;;;;12.90;10.27;;;;;;;30.55;58.82;100747.31;5067753;28;70208;-41
2022/03/16 00:51:50;;;;;;;15.38;11.48;;;;;;;30.60;58.57;100755.59;5078554;28;66307;-41
2022/03/16 00:54:22;;;;;;;11.30;10.25;;;;;;;30.65;57.90;100753.91;5067614;27;70137;-41
2022/03/16 00:56:53;;;;;;;12.13;10.25;;;;;;;30.68;57.92;100761.56;5074069;28;65141;-41
2022/03/16 00:59:24;;;;;;;11.38;10.23;;;;;;;30.67;58.05;100757.22;5069956;28;69327;-40
2022/03/16 01:01:55;;;;;;;10.13;9.10;;;;;;;30.79;57.30;100764.63;5063008;28;66364;-40
2022/03/16 01:04:26;;;;;;;11.10;9.53;;;;;;;30.83;57.59;100765.84;5069806;27;69322;-40
2022/03/16 01:06:58;;;;;;;13.20;10.88;;;;;;;30.87;57.54;100775.16;5067238;27;66193;-40
2022/03/16 01:09:28;;;;;;;10.90;9.80;;;;;;;30.87;57.46;100767.88;5052287;28;70044;-40
2022/03/16 01:12:00;;;;;;;9.65;8.65;;;;;;;30.96;57.07;100787.38;5059518;28;66924;-40
2022/03/16 01:14:30;;;;;;;10.05;9.07;;;;;;;30.95;56.61;100772.16;5070476;28;70184;-41
2022/03/16 01:17:02;;;;;;;10.20;9.20;;;;;;;31.00;57.00;100780.47;5077704;28;66386;-42
2022/03/16 01:19:34;;;;;;;11.45;9.48;;;;;;;30.97;56.53;100772.78;5068046;28;70158;-41
2022/03/16 01:22:06;;;;;;;12.23;8.98;;;;;;;31.08;56.72;100785.59;5078956;28;67057;-40
2022/03/16 01:24:38;;;;;;;11.20;9.00;;;;;;;30.97;56.54;100772.78;5066384;28;69431;-41
2022/03/16 01:27:09;;;;;;;11.05;9.05;;;;;;;31.11;56.45;100790.56;5066005;28;65476;-41
2022/03/16 01:29:40;;;;;;;9.15;8.35;;;;;;;31.13;56.36;100799.28;5085412;27;70152;-41
2022/03/16 01:32:10;;;;;;;9.50;8.60;;;;;;;31.18;56.22;100804.06;5085703;27;66122;-41
2022/03/16 01:34:41;;;;;;;8.60;7.90;;;;;;;31.21;56.25;100816.31;5064986;28;70015;-41
2022/03/16 01:37:15;;;;;;;9.98;8.65;;;;;;;31.13;55.99;100803.91;5066771;28;66523;-41
2022/03/16 01:39:46;;;;;;;8.40;7.80;;;;;;;31.26;55.70;100821.88;5074941;27;69471;-42
2022/03/16 01:42:16;;;;;;;9.40;7.82;;;;;;;31.26;55.97;100813.75;5069115;27;65785;-41
2022/03/16 01:44:54;;;;;;;8.52;7.82;;;;;;;31.31;54.93;100833.69;5072902;27;70177;-40
2022/03/16 01:47:26;;;;;;;9.77;7.43;;;;;;;31.34;55.46;100833.28;5071197;27;66563;-41
2022/03/16 01:49:57;;;;;;;8.73;7.90;;;;;;;31.33;55.13;100825.34;5061491;27;69285;-41
2022/03/16 01:52:29;;;;;;;10.25;8.05;;;;;;;31.03;54.76;100777.31;5074749;27;65879;-41
2022/03/16 01:55:04;;;;;;;8.65;7.95;;;;;;;31.42;54.94;100836.75;5056571;27;69781;-41
2022/03/16 01:57:36;;;;;;;7.82;7.18;;;;;;;31.45;54.54;100839.84;5070137;27;66252;-41
2022/03/16 02:00:09;;;;;;;9.23;8.30;;;;;;;31.40;54.43;100837.00;5075640;28;44099;-41
2022/03/16 02:02:42;;;;;;;9.75;7.97;;;;;;;31.48;54.30;100847.56;5068205;28;66322;-41
2022/03/16 02:05:14;;;;;;;11.02;7.80;;;;;;;31.50;54.71;100853.56;5074440;27;70379;-41
2022/03/16 02:07:46;;;;;;;8.90;8.02;;;;;;;31.44;54.43;100835.50;5068625;28;66362;-41
2022/03/16 02:10:17;;;;;;;8.00;7.30;;;;;;;31.51;54.05;100844.38;5078611;28;70521;-41
2022/03/16 02:12:51;;;;;;;7.88;7.13;;;;;;;31.59;53.87;100851.38;5079706;28;66675;-40
2022/03/16 02:15:23;;;;;;;7.68;6.78;;;;;;;31.60;54.26;100853.88;5066230;28;70061;-42
2022/03/16 02:17:55;;;;;;;8.65;7.97;;;;;;;31.64;54.03;100850.69;5070023;28;66275;-41
2022/03/16 02:20:27;;;;;;;7.65;7.05;;;;;;;31.57;54.05;100840.78;5074679;28;70036;-42
2022/03/16 02:23:06;;;;;;;7.88;7.15;;;;;;;31.69;53.55;100861.69;5068118;28;66268;-40
2022/03/16 02:25:51;;;;;;;10.25;7.25;;;;;;;31.66;53.32;100876.53;5078404;28;68928;-40
2022/03/16 02:28:23;;;;;;;7.47;6.97;;;;;;;31.76;53.74;100874.13;5069543;28;65918;-40
2022/03/16 02:30:53;;;;;;;7.50;6.80;;;;;;;31.73;53.54;100863.75;5090107;27;70059;-40
2022/03/16 02:33:25;;;;;;;7.70;7.10;;;;;;;31.81;53.39;100871.56;5060526;28;65650;-41
2022/03/16 02:35:56;;;;;;;7.28;6.55;;;;;;;31.83;53.19;100877.59;5073650;28;69684;-41
2022/03/16 02:38:27;;;;;;;8.93;7.00;;;;;;;31.83;53.20;100874.06;5060383;28;66819;-40
2022/03/16 02:40:58;;;;;;;8.10;7.38;;;;;;;31.83;53.07;100864.03;5072160;28;69590;-41
2022/03/16 02:43:29;;;;;;;8.10;7.30;;;;;;;31.92;53.06;100867.28;5074942;28;66266;-41
2022/03/16 02:46:00;;;;;;;7.68;6.93;;;;;;;31.95;53.34;100874.13;5068875;28;70387;-41
2022/03/16 02:48:31;;;;;;;6.17;5.73;;;;;;;31.92;53.09;100866.47;5065431;28;65708;-42
2022/03/16 02:51:01;;;;;;;7.53;6.90;;;;;;;31.99;53.08;100873.47;5067383;27;69884;-41
2022/03/16 02:53:32;;;;;;;7.90;6.93;;;;;;;32.00;52.98;100858.84;5070393;28;66202;-42
2022/03/16 02:56:03;;;;;;;7.78;6.82;;;;;;;32.05;52.75;100866.28;5059456;28;70509;-42
2022/03/16 02:58:34;;;;;;;7.38;6.88;;;;;;;32.06;52.82;100867.94;5072587;28;66374;-41
2022/03/16 03:01:05;;;;;;;7.00;6.40;;;;;;;32.11;52.57;100859.13;5068632;28;69541;-41
2022/03/16 03:03:36;;;;;;;7.22;6.32;;;;;;;32.13;52.64;100862.44;5080327;28;66336;-41
2022/03/16 03:06:09;;;;;;;7.07;6.53;;;;;;;32.16;52.57;100864.69;5072987;27;69420;-41
2022/03/16 03:08:40;;;;;;;7.97;6.88;;;;;;;32.12;52.25;100849.91;5077562;28;65616;-41
2022/03/16 03:11:12;;;;;;;6.57;6.07;;;;;;;32.19;52.63;100861.53;5071608;28;69812;-42
2022/03/16 03:13:43;;;;;;;7.10;6.60;;;;;;;32.22;52.55;100856.47;5067585;28;66344;-41
2022/03/16 03:16:13;;;;;;;7.05;6.47;;;;;;;32.26;52.36;100854.09;5075811;27;70214;-40
2022/03/16 03:18:44;;;;;;;6.95;6.45;;;;;;;32.13;52.04;100828.00;5076874;28;65575;-40
2022/03/16 03:21:15;;;;;;;7.18;6.55;;;;;;;32.18;52.21;100833.56;5068281;28;71584;-41
2022/03/16 03:23:47;;;;;;;6.75;6.35;;;;;;;32.32;52.25;100845.06;5068235;28;64810;-40
2022/03/16 03:26:17;;;;;;;6.70;6.10;;;;;;;32.33;52.13;100843.16;5061129;28;68829;-43
2022/03/16 03:28:48;;;;;;;6.68;6.13;;;;;;;32.39;51.98;100844.94;5074607;28;66246;-41
2022/03/16 03:31:21;;;;;;;7.07;6.40;;;;;;;32.40;52.14;100847.44;5091858;27;71333;-41
2022/03/16 03:33:52;;;;;;;9.30;6.78;;;;;;;32.41;51.97;100843.66;5070915;28;65855;-41
2022/03/16 03:36:23;;;;;;;7.15;6.45;;;;;;;32.43;52.09;100833.41;5080986;27;69985;-42
2022/03/16 03:38:54;;;;;;;6.57;6.07;;;;;;;32.46;51.87;100840.28;5073767;27;65131;-41
2022/03/16 03:41:25;;;;;;;7.20;6.63;;;;;;;32.51;51.66;100828.72;5062438;28;70229;-42
2022/03/16 03:43:55;;;;;;;6.82;6.32;;;;;;;32.50;51.49;100822.47;5070766;28;66233;-42
2022/03/16 03:46:26;;;;;;;7.13;6.57;;;;;;;32.45;51.88;100809.53;5075369;28;70193;-42
2022/03/16 03:48:57;;;;;;;7.13;6.50;;;;;;;32.53;51.90;100819.28;5065462;28;65549;-40
2022/03/16 03:51:28;;;;;;;6.85;6.35;;;;;;;32.40;51.68;100793.16;5079365;28;69900;-41
2022/03/16 03:53:58;;;;;;;6.10;5.70;;;;;;;32.59;51.53;100812.09;5067022;28;65760;-41
2022/03/16 03:56:32;;;;;;;7.25;6.57;;;;;;;32.62;51.28;100800.75;5085358;27;69951;-43
2022/03/16 03:59:03;;;;;;;6.50;6.00;;;;;;;32.65;51.77;100800.28;5063285;28;66179;-46
2022/03/16 04:01:34;;;;;;;6.57;6.07;;;;;;;32.63;51.57;100791.56;5076324;28;68975;-43
2022/03/16 04:04:07;;;;;;;6.53;5.87;;;;;;;32.67;51.36;100800.88;5059587;28;65253;-42
2022/03/16 04:06:37;;;;;;;;;;;;;;;32.34;51.86;100799.47;5072411;28;70045;-44
2022/03/16 04:09:18;;;;;;;6.75;5.93;;;;;;;32.65;51.40;100794.84;5071535;27;65776;-42
2022/03/16 04:11:48;;;;;;;6.07;5.57;;;;;;;32.67;51.19;100779.97;5069820;27;69607;-41
2022/03/16 04:14:19;;;;;;;6.80;5.95;;;;;;;32.67;51.25;100782.69;5068826;27;65528;-42
2022/03/16 04:16:50;;;;;;;6.60;6.07;;;;;;;32.72;51.38;100779.28;5076012;27;71560;-43
2022/03/16 04:19:21;;;;;;;6.05;5.65;;;;;;;32.47;51.26;100734.16;5074652;27;66516;-42
2022/03/16 04:21:51;;;;;;;6.03;5.50;;;;;;;32.78;51.45;100780.22;5076965;27;70192;-42
2022/03/16 04:24:22;;;;;;;7.13;6.00;;;;;;;32.79;51.07;100771.84;5079593;27;66337;-41
2022/03/16 04:26:54;;;;;;;5.93;5.53;;;;;;;32.69;51.10;100753.41;5074055;27;69920;-41
2022/03/16 04:29:25;;;;;;;6.30;5.80;;;;;;;32.82;50.98;100762.38;5060741;28;65575;-42
2022/03/16 04:31:58;;;;;;;10.23;6.17;;;;;;;32.84;51.02;100766.50;5082822;27;68935;-46
2022/03/16 04:34:29;;;;;;;7.00;6.38;;;;;;;32.87;51.08;100763.31;5079719;28;66576;-43
2022/03/16 04:37:00;;;;;;;6.85;6.35;;;;;;;32.87;50.99;100760.59;5071777;28;69041;-42
2022/03/16 04:39:32;;;;;;;7.80;6.45;;;;;;;32.90;50.97;100749.28;5073607;28;66742;-43
2022/03/16 04:42:03;;;;;;;6.85;6.25;;;;;;;32.90;50.82;100743.84;5061849;28;70323;-43
2022/03/16 04:44:33;;;;;;;7.05;5.38;;;;;;;32.91;50.68;100737.34;5059518;28;66573;-43
2022/03/16 04:47:05;;;;;;;8.68;6.20;;;;;;;32.96;50.67;100742.06;5059713;28;69731;-41
2022/03/16 04:49:39;;;;;;;6.40;5.90;;;;;;;33.00;50.66;100737.84;5061083;28;66540;-42
2022/03/16 04:52:13;;;;;;;7.00;6.32;;;;;;;33.00;50.68;100728.88;5060373;28;70260;-41
2022/03/16 04:54:44;;;;;;;7.00;6.03;;;;;;;33.06;50.56;100730.63;5074636;28;66627;-41
2022/03/16 04:57:14;;;;;;;8.13;5.93;;;;;;;33.06;50.57;100719.75;5060250;28;69623;-41
2022/03/16 04:59:45;;;;;;;6.75;6.13;;;;;;;33.05;50.28;100716.22;5054977;28;65752;-41
2022/03/16 05:02:16;;;;;;;6.70;6.20;;;;;;;33.12;50.59;100707.91;5067171;28;70752;-43
2022/03/16 05:04:46;;;;;;;6.28;5.78;;;;;;;33.15;50.54;100707.44;5080033;27;66376;-43
2022/03/16 05:07:17;;;;;;;8.95;6.22;;;;;;;33.15;50.32;100691.13;5074774;28;69039;-42
2022/03/16 05:09:48;;;;;;;5.80;5.38;;;;;;;33.17;50.55;100689.00;5073242;28;66512;-41
2022/03/16 05:12:37;;;;;;;6.07;5.65;;;;;;;33.09;49.79;100673.06;5061594;27;70376;-41
2022/03/16 05:15:10;;;;;;;7.10;6.43;;;;;;;32.61;50.38;100588.09;5065518;28;65407;-43
2022/03/16 05:17:41;;;;;;;6.20;5.70;;;;;;;33.22;50.04;100680.13;5064172;28;70579;-41
2022/03/16 05:20:13;;;;;;;6.47;6.07;;;;;;;33.22;50.39;100670.09;5075594;28;66340;-42
2022/03/16 05:22:45;;;;;;;10.50;6.25;;;;;;;33.03;50.33;100633.28;5079615;28;69397;-42
2022/03/16 05:25:30;;;;;;;6.95;6.35;;;;;;;32.88;50.21;100604.69;5068179;27;65314;-42
2022/03/16 05:28:01;;;;;;;6.50;6.00;;;;;;;33.20;50.30;100638.78;5058888;28;70607;-42
2022/03/16 05:30:31;;;;;;;6.63;6.03;;;;;;;33.27;50.20;100651.16;5085214;27;66406;-42
2022/03/16 05:33:02;;;;;;;7.47;6.22;;;;;;;33.31;50.13;100646.88;5061551;27;69584;-42
2022/03/16 05:35:34;;;;;;;6.38;5.88;;;;;;;33.30;50.25;100649.84;5072395;28;66269;-42
2022/03/16 05:38:05;;;;;;;6.53;6.03;;;;;;;33.31;50.10;100641.44;5075345;27;70019;-41
2022/03/16 05:40:36;;;;;;;7.07;6.50;;;;;;;33.24;50.23;100618.19;5061240;28;65103;-41
2022/03/16 05:43:09;;;;;;;6.97;6.38;;;;;;;33.31;50.10;100627.84;5077893;28;70540;-42
2022/03/16 05:45:40;;;;;;;6.65;6.05;;;;;;;33.36;50.11;100633.38;5071158;27;66969;-41
2022/03/16 05:48:11;;;;;;;6.70;6.20;;;;;;;33.33;50.30;100617.56;5073776;28;69398;-41
2022/03/16 05:50:45;;;;;;;5.78;5.38;;;;;;;33.36;50.10;100619.78;5067369;28;66013;-41
2022/03/16 05:53:16;;;;;;;6.90;6.40;;;;;;;33.37;50.16;100618.72;5065104;28;70505;-41
2022/03/16 05:55:47;;;;;;;6.95;6.25;;;;;;;33.32;50.11;100607.75;5080952;27;66150;-42
2022/03/16 05:58:18;;;;;;;7.15;6.55;;;;;;;33.41;49.77;100607.38;5064648;27;70624;-41
2022/03/16 06:00:48;;;;;;;6.72;6.22;;;;;;;33.16;49.97;100567.78;5079634;28;66022;-41
2022/03/16 06:03:20;;;;;;;6.68;6.28;;;;;;;33.42;50.14;100603.56;5066836;28;70675;-41
2022/03/16 06:05:50;;;;;;;8.17;6.23;;;;;;;33.44;50.21;100601.44;5071208;28;67418;-41
2022/03/16 06:08:21;;;;;;;7.07;6.43;;;;;;;33.44;50.06;100596.00;5074118;28;70863;-41
2022/03/16 06:10:52;;;;;;;7.30;6.70;;;;;;;33.48;49.73;100589.00;5067423;28;66033;-41
2022/03/16 06:13:23;;;;;;;7.07;6.50;;;;;;;33.50;49.95;100590.41;5079055;27;70292;-40
2022/03/16 06:15:53;;;;;;;7.03;6.45;;;;;;;33.51;49.89;100583.88;5060776;28;66236;-41
2022/03/16 06:18:24;;;;;;;7.40;6.70;;;;;;;33.54;49.87;100579.88;5074512;28;71069;-42
2022/03/16 06:20:55;;;;;;;7.03;6.53;;;;;;;33.54;50.02;100580.72;5065218;27;66179;-40
2022/03/16 06:23:26;;;;;;;7.13;6.40;;;;;;;33.57;49.68;100576.66;5078959;28;70425;-42
2022/03/16 06:25:57;;;;;;;6.75;6.20;;;;;;;33.56;49.78;100572.31;5075346;27;65047;-41
2022/03/16 06:28:27;;;;;;;7.05;6.55;;;;;;;33.56;49.98;100558.72;5071577;28;68956;-41
2022/03/16 06:30:58;;;;;;;7.25;6.75;;;;;;;33.61;49.61;100569.69;5089766;27;66062;-41
2022/03/16 06:33:30;;;;;;;6.75;6.35;;;;;;;33.62;49.84;100551.47;5072533;28;69411;-42
2022/03/16 06:36:00;;;;;;;6.97;6.47;;;;;;;33.64;49.83;100552.88;5073980;28;66622;-41
2022/03/16 06:38:31;;;;;;;9.45;7.32;;;;;;;33.62;49.46;100544.13;5079650;27;70982;-42
2022/03/16 06:41:02;;;;;;;7.63;7.15;;;;;;;33.65;49.72;100540.91;5065292;27;65271;-41
2022/03/16 06:43:34;;;;;;;8.30;7.47;;;;;;;33.68;49.66;100528.69;5073928;27;69075;-41
2022/03/16 06:46:06;;;;;;;7.10;6.65;;;;;;;33.72;49.67;100541.56;5073003;28;65859;-41
2022/03/16 06:48:38;;;;;;;8.23;7.55;;;;;;;33.74;49.42;100530.44;5072193;27;70256;-41
2022/03/16 06:51:09;;;;;;;7.68;7.18;;;;;;;33.74;49.41;100528.56;5073258;28;66773;-41
2022/03/16 06:53:40;;;;;;;7.90;7.30;;;;;;;33.73;49.43;100517.91;5064767;28;69059;-42
2022/03/16 06:56:11;;;;;;;7.35;6.95;;;;;;;33.71;49.69;100503.72;5077735;27;64464;-42
2022/03/16 06:58:42;;;;;;;8.27;7.70;;;;;;;33.74;49.47;100514.97;5065239;28;69987;-42
2022/03/16 07:01:13;;;;;;;8.35;7.85;;;;;;;33.77;49.59;100503.56;5080323;27;66047;-41
2022/03/16 07:03:47;;;;;;;8.60;7.97;;;;;;;33.75;49.68;100499.44;5079109;27;70588;-41
2022/03/16 07:06:18;;;;;;;8.70;8.00;;;;;;;33.83;49.43;100496.31;5067173;27;65233;-41
2022/03/16 07:08:50;;;;;;;8.67;7.93;;;;;;;33.78;49.70;100482.63;5063679;28;69429;-41
2022/03/16 07:11:20;;;;;;;9.23;8.60;;;;;;;33.86;49.46;100501.25;5067660;27;66225;-41
2022/03/16 07:16:41;;;;;;;9.43;8.73;;;;;;;33.92;49.45;100502.16;5083300;27;65385;-42
2022/03/16 07:19:12;;;;;;;;;;;;;;;33.62;50.10;100494.34;5064357;27;69910;-42
2022/03/16 07:21:42;;;;;;;9.27;8.60;;;;;;;33.93;49.50;100490.19;5065390;28;64794;-42
2022/03/16 07:24:13;;;;;;;9.10;8.40;;;;;;;33.95;49.45;100490.75;5064438;28;69927;-41
2022/03/16 07:26:44;;;;;;;9.93;9.15;;;;;;;33.97;49.32;100494.88;5082754;27;65689;-42
2022/03/16 07:29:15;;;;;;;9.40;8.80;;;;;;;33.99;49.36;100483.72;5073599;27;70363;-42
2022/03/16 07:31:46;;;;;;;9.48;8.75;;;;;;;33.85;49.26;100460.66;5080679;27;66421;-42
2022/03/16 07:34:17;;;;;;;9.87;9.00;;;;;;;34.01;49.36;100476.13;5067887;27;71891;-42
2022/03/16 07:36:49;;;;;;;10.00;9.20;;;;;;;34.03;49.11;100479.44;5077236;28;66484;-42
2022/03/16 07:39:20;;;;;;;10.27;9.60;;;;;;;34.03;49.47;100474.81;5064217;27;70079;-42
2022/03/16 07:41:51;;;;;;;10.10;9.50;;;;;;;34.03;49.21;100468.56;5063099;27;66193;-41
2022/03/16 07:44:21;;;;;;;10.90;10.00;;;;;;;34.07;49.27;100468.91;5086100;27;70198;-41
2022/03/16 07:46:52;;;;;;;11.38;10.27;;;;;;;34.03;49.34;100463.13;5065454;27;66383;-42
2022/03/16 07:49:23;;;;;;;10.75;9.65;;;;;;;34.07;49.38;100469.72;5057295;28;70593;-42
2022/03/16 07:51:55;;;;;;;10.38;9.63;;;;;;;34.08;49.30;100463.22;5077521;27;66772;-41
2022/03/16 07:54:27;;;;;;;10.32;9.73;;;;;;;34.10;49.14;100462.94;5082863;27;70187;-41
2022/03/16 07:57:00;;;;;;;10.90;10.10;;;;;;;34.11;49.41;100454.53;5089240;27;65820;-41
2022/03/16 07:59:30;;;;;;;10.57;9.75;;;;;;;34.12;49.41;100456.19;5072741;28;69101;-43
2022/03/16 08:02:01;;;;;;;11.25;10.45;;;;;;;34.14;48.86;100451.31;5076761;27;65129;-44
2022/03/16 08:04:32;;;;;;;10.63;9.93;;;;;;;34.13;49.11;100436.06;5071289;27;70255;-43
2022/03/16 08:07:13;;;;;;;;;;;;;;;33.90;49.74;100444.44;5064418;27;66230;-43
2022/03/16 08:09:44;;;;;;;11.52;10.68;;;;;;;34.20;49.09;100441.31;5056323;28;68064;-42
2022/03/16 08:12:16;;;;;;;11.43;10.50;;;;;;;34.26;48.72;100430.22;5080380;27;66807;-42
2022/03/16 08:14:47;;;;;;;11.57;10.77;;;;;;;34.28;48.97;100426.44;5086713;27;70565;-42
2022/03/16 08:17:18;;;;;;;11.77;10.85;;;;;;;34.25;48.87;100417.69;5066631;28;65982;-42
2022/03/16 08:19:49;;;;;;;11.50;10.70;;;;;;;34.24;49.18;100415.22;5095917;27;70406;-42
2022/03/16 08:22:34;;;;;;;11.25;10.55;;;;;;;34.31;48.93;100431.38;5066577;27;66077;-42
2022/03/16 08:25:07;;;;;;;11.45;10.65;;;;;;;34.30;49.04;100413.38;5069538;28;70152;-42
2022/03/16 08:27:42;;;;;;;12.55;11.25;;;;;;;34.37;48.87;100424.91;5073726;28;65549;-42
2022/03/16 08:30:13;;;;;;;11.27;10.48;;;;;;;34.35;48.78;100414.28;5044112;27;69113;-42
2022/03/16 08:32:45;;;;;;;14.02;11.82;;;;;;;34.34;48.91;100415.34;5064631;28;66742;-41
2022/03/16 08:35:16;;;;;;;12.07;11.27;;;;;;;34.41;48.74;100423.31;5070283;28;69325;-41
2022/03/16 08:37:46;;;;;;;13.15;11.93;;;;;;;34.44;49.02;100425.53;5071593;28;65478;-41
2022/03/16 08:40:18;;;;;;;12.73;11.50;;;;;;;34.43;48.77;100418.44;5069258;28;70048;-41
2022/03/16 08:42:49;;;;;;;12.30;11.52;;;;;;;34.47;48.69;100425.03;5082404;27;65967;-41
2022/03/16 08:45:21;;;;;;;12.18;11.45;;;;;;;34.12;48.75;100363.63;5079767;28;70326;-43
2022/03/16 08:47:51;;;;;;;11.82;11.05;;;;;;;34.52;48.79;100422.34;5080714;28;66196;-41
2022/03/16 08:50:22;;;;;;;12.82;11.98;;;;;;;34.53;48.44;100418.53;5067344;28;70078;-43
2022/03/16 08:52:53;;;;;;;12.52;11.73;;;;;;;34.57;48.77;100419.69;5067318;28;65781;-43
2022/03/16 08:55:24;;;;;;;12.82;11.90;;;;;;;34.57;48.62;100414.25;5075308;28;69577;-42
2022/03/16 08:57:56;;;;;;;13.48;12.23;;;;;;;34.54;48.68;100414.72;5072447;28;65235;-42
2022/03/16 09:00:27;;;;;;;14.15;13.25;;;;;;;34.61;48.66;100417.31;5065284;27;69679;-42
2022/03/16 09:02:58;;;;;;;14.05;13.13;;;;;;;34.55;48.51;100405.50;5069512;27;66635;-49
2022/03/16 09:05:29;;;;;;;14.23;13.20;;;;;;;34.62;48.39;100417.03;5085752;27;71643;-42
2022/03/16 09:08:00;;;;;;;13.65;12.57;;;;;;;34.63;48.75;100418.69;5071003;28;66188;-42
2022/03/16 09:10:31;;;;;;;14.50;13.27;;;;;;;34.63;48.36;100423.28;5064395;28;70116;-42
2022/03/16 09:13:04;;;;;;;14.32;13.00;;;;;;;34.60;48.42;100419.22;5067653;28;66889;-43
2022/03/16 09:15:39;;;;;;;14.73;13.52;;;;;;;34.64;48.30;100424.97;5067704;28;70342;-42
2022/03/16 09:18:10;;;;;;;12.93;12.20;;;;;;;34.66;48.44;100437.25;5070365;28;64920;-42
2022/03/16 09:20:46;;;;;;;15.65;14.45;;;;;;;34.68;48.25;100434.25;5074927;28;69343;-43
2022/03/16 09:23:18;;;;;;;14.00;13.05;;;;;;;34.40;48.60;100391.72;5070042;28;66309;-41
2022/03/16 09:25:48;;;;;;;;;;;;;;;34.38;48.83;100437.44;5081269;28;69976;-42
2022/03/16 09:28:20;;;;;;;14.68;13.50;;;;;;;34.65;48.33;100432.84;5081398;27;66285;-42
2022/03/16 09:30:50;;;;;;;15.18;14.27;;;;;;;34.67;48.31;100425.25;5080591;27;70545;-42
2022/03/16 09:33:24;;;;;;;15.55;14.25;;;;;;;34.67;48.16;100425.25;5059042;28;65872;-44
2022/03/16 09:35:55;;;;;;;15.40;14.23;;;;;;;34.68;47.93;100434.25;5074746;28;69868;-42
2022/03/16 09:38:26;;;;;;;15.07;13.90;;;;;;;34.68;48.12;100426.88;5074503;28;66143;-47
2022/03/16 09:40:57;;;;;;;16.70;15.23;;;;;;;34.69;48.29;100434.00;5059506;28;69978;-41
2022/03/16 09:43:33;;;;;;;;;;;;;;;34.42;48.63;100444.03;5060825;28;67305;-42
2022/03/16 09:46:11;;;;;;;16.05;14.75;;;;;;;34.63;48.07;100443.22;5060534;28;68776;-42
2022/03/16 09:48:43;;;;;;;16.70;15.13;;;;;;;34.68;48.38;100440.50;5066447;28;65445;-43
2022/03/16 09:51:18;;;;;;;15.20;14.02;;;;;;;34.65;48.33;100443.75;5078143;27;70041;-42
2022/03/16 09:53:49;;;;;;;15.60;14.50;;;;;;;34.62;48.17;100444.28;5079888;27;65478;-41
2022/03/16 09:56:21;;;;;;;15.80;14.60;;;;;;;34.69;48.15;100458.53;5066329;27;70451;-42
2022/03/16 09:58:52;;;;;;;15.80;14.63;;;;;;;34.64;48.16;100450.28;5067922;28;66133;-43
2022/03/16 10:01:23;;;;;;;15.95;14.65;;;;;;;34.69;48.50;100454.97;5066291;27;69291;-42
2022/03/16 10:04:06;;;;;;;15.32;14.23;;;;;;;34.58;48.49;100443.16;5074754;28;65250;-41
2022/03/16 10:06:40;;;;;;;16.85;15.05;;;;;;;34.66;48.23;100461.75;5083291;27;69513;-41
2022/03/16 10:15:16;;;;;;;15.55;14.07;;;;;;;34.58;48.49;100477.75;5049256;28;65873;-41
2022/03/16 10:18:06;;;;;;;14.02;13.23;;;;;;;34.41;48.56;100442.38;5057720;28;69656;-41
2022/03/16 10:20:40;;;;;;;15.77;14.60;;;;;;;34.63;48.28;100477.78;5073162;28;66296;-41
2022/03/16 10:23:14;;;;;;;15.85;14.55;;;;;;;34.62;48.52;100482.41;5059600;28;69620;-42
2022/03/16 10:25:51;;;;;;;16.05;14.68;;;;;;;34.53;48.57;100464.03;5058750;28;66286;-42
2022/03/16 10:28:26;;;;;;;16.65;15.20;;;;;;;34.60;48.84;100473.69;5065229;28;69744;-43
2022/03/16 10:31:08;;;;;;;16.33;15.05;;;;;;;34.57;48.56;100485.06;5061142;28;66558;-43
2022/03/16 10:33:44;;;;;;;;;;;;;;;34.25;49.35;100493.91;5059926;28;69512;-43
2022/03/16 10:36:23;;;;;;;15.75;14.50;;;;;;;34.22;49.20;100455.50;5077117;28;67032;-43
2022/03/16 10:38:58;;;;;;;15.63;14.40;;;;;;;34.44;49.31;100490.88;5080873;28;70830;-43
2022/03/16 10:47:52;;;;;;;23.08;17.42;;;;;;;34.17;50.66;100502.53;5063708;28;65731;-44
2022/03/16 10:50:23;;;;;;;25.58;17.90;;;;;;;34.19;51.74;100507.72;5074060;27;69201;-44
2022/03/16 10:52:57;;;;;;;27.83;18.98;;;;;;;34.09;52.39;100511.13;5061394;28;66549;-42
2022/03/16 10:55:29;;;;;;;24.73;18.63;;;;;;;34.04;52.31;100513.72;5044704;28;70139;-43
2022/03/16 10:58:11;;;;;;;20.60;17.98;;;;;;;33.97;52.92;100513.94;5058494;28;66402;-42
2022/03/16 11:00:42;;;;;;;20.65;18.73;;;;;;;33.93;53.42;100512.75;5063770;28;69593;-43
2022/03/16 11:03:15;;;;;;;20.35;18.27;;;;;;;33.91;53.34;100512.22;5042227;28;66019;-42
2022/03/16 11:05:47;;;;;;;22.05;19.73;;;;;;;33.88;54.19;100517.31;5060138;28;69853;-42
2022/03/16 11:08:21;;;;;;;22.88;19.13;;;;;;;33.88;54.52;100520.03;5055275;28;66922;-45
2022/03/16 11:10:55;;;;;;;21.50;19.40;;;;;;;33.83;54.30;100523.50;5065957;27;70472;-43
2022/03/16 11:13:30;;;;;;;21.77;19.45;;;;;;;33.79;54.10;100523.19;5031742;28;66433;-43
2022/03/16 11:16:02;;;;;;;22.40;20.08;;;;;;;33.75;53.61;100522.03;5045171;28;70503;-43
2022/03/16 11:18:33;;;;;;;23.42;21.02;;;;;;;33.67;53.58;100525.16;5057047;28;66117;-43
2022/03/16 11:21:13;;;;;;;21.55;19.48;;;;;;;33.71;54.01;100541.81;5042729;28;70188;-43
2022/03/16 11:27:10;;;;;;;22.25;20.35;;;;;;;33.56;53.56;100553.28;5072410;28;69390;-42
2022/03/16 11:30:15;;;;;;;22.58;20.35;;;;;;;33.50;54.02;100567.81;5046007;28;66613;-42
2022/03/16 11:32:46;;;;;;;25.10;22.27;;;;;;;33.59;53.60;100577.25;5043355;28;68314;-44
2022/03/16 11:35:18;;;;;;;22.23;20.05;;;;;;;33.53;53.51;100572.81;5048693;28;66698;-42
2022/03/16 11:38:10;;;;;;;22.27;20.27;;;;;;;33.42;53.51;100573.66;5070029;28;68891;-42
2022/03/16 11:40:53;;;;;;;22.63;20.45;;;;;;;33.48;53.15;100591.72;5070618;28;65838;-43
2022/03/16 11:43:25;;;;;;;22.48;20.30;;;;;;;33.44;53.85;100585.13;5074837;28;69777;-45
2022/03/16 11:45:59;;;;;;;22.63;20.15;;;;;;;33.48;53.83;100597.97;5069428;28;65744;-42
2022/03/16 11:48:33;;;;;;;20.08;18.13;;;;;;;33.45;54.11;100613.97;5076255;28;69897;-43
2022/03/16 11:51:09;;;;;;;19.90;18.20;;;;;;;33.45;54.27;100613.97;5060858;28;66566;-42
2022/03/16 11:54:00;;;;;;;18.75;16.95;;;;;;;33.40;54.60;100605.72;5080132;28;69201;-43
2022/03/16 11:56:39;;;;;;;;;;;;;;;33.06;55.63;100616.50;5059763;28;66203;-42
2022/03/16 11:59:20;;;;;;;18.75;17.17;;;;;;;33.25;54.87;100615.22;5070229;28;70589;-42
2022/03/16 12:01:58;;;;;;;21.52;19.27;;;;;;;33.25;54.80;100617.94;5077007;28;64417;-44